Springdale, MT

12:26 PM MDT on September 02, 2014 (GMT -0600)
Mission | Change Station
CLOSE
Current Station
Airport
Location: Livingston,
Elevation: 4656 ft
Nearby Weather Stations

Elev 4656 ft 45.70 °N, 110.44 °W | Updated 33 minutes ago

Clear
Clear
73 °F
Feels Like 73 °F
N
13
Wind Variable Wind from West
Gusts 34 mph

Today
High -- | Low -- °F
--% Chance of Precip.
Yesterday
High -- | Low -- °F
Precip. -- in
6:43 AM 7:56 PM
First Quarter, 53% visible
Pressure 29.81 in
Visibility 10.0 miles
Clouds Clear
Dew Point 37 °F
Humidity 27%
Rainfall 0.00 in
Snow Depth Not available.
UV 7 out of 12
Pollen 7.80 out of 12
Air Quality Not available.
Flu Activity Not available.
METAR KLVM 021753Z AUTO 27011G30KT 10SM CLR 23/03 A2990 RMK AO2 PK WND 26030/1744 SLP092 T02280028 10233 20072 58019

More Conditions Fewer Conditions

Pressure 29.81 in
Visibility 10.0 miles
Clouds Clear
Dew Point 37 °F
Humidity 27%
Rainfall 0.00 in
Snow Depth Not available.
UV 7 out of 12
Pollen 7.80 out of 12
Air Quality Not available.
Flu Activity Not available.
METAR KLVM 021753Z AUTO 27011G30KT 10SM CLR 23/03 A2990 RMK AO2 PK WND 26030/1744 SLP092 T02280028 10233 20072 58019

More Conditions Fewer Conditions

10-Day Weather Forecast

Almanac

Astronomy

Sep. 02, 2014 Rise Set
Actual Time 6:43 AM MDT 7:56 PM MDT
Civil Twilight 6:12 AM MDT 8:27 PM MDT
Nautical Twilight 5:35 AM MDT 9:04 PM MDT
Astronomical Twilight 4:56 AM MDT 9:43 PM MDT
Moon 2:52 PM MDT No Moon Set
Length of Visible Light 14h 14m
Length of Day
13h 13m
Tomorrow will be 3m 5s shorter.
First Quarter, 53% of the Moon is Illuminated
Today
First Quarter
Sep 8
Full
Sep 15
Last Quarter
Sep 24
New
Oct 1
First Quarter

Today's Extremes

State Highs State Lows

Community

WunderPhotos

Upload Photos

1,749,727 photos uploaded!

WunderBlogs® & News

Nearby

Snow Depth

Station Depth Elevation
South Fork Shields 0 in 8100 ft
Porcupine 1 in 6500 ft
Sacajawea 0 in 6550 ft
Monument Peak 0 in 8850 ft
Shower Falls 1 in 8100 ft

Earthquake Activity

City Distance Mag. Time & Date
Driggs, Idaho 140 miles 3.8 2:09 PM MDT
2014-08-30
Minimum magnitude displayed is 2.5.

Coastal Water Temperatures

Place Temperature
No Stations Reporting

Nearby Weather Stations